sensor_id;sensor_type;location;lat;lon;timestamp;P1;durP1;ratioP1;P2;durP2;ratioP2
35893;SDS011;21994;48.204;16.516;2022-08-01T00:00:35;4.35;;;2.00;;
35893;SDS011;21994;48.204;16.516;2022-08-01T00:03:01;1.70;;;1.42;;
35893;SDS011;21994;48.204;16.516;2022-08-01T00:05:28;4.03;;;2.20;;
35893;SDS011;21994;48.204;16.516;2022-08-01T00:07:54;3.28;;;2.05;;
35893;SDS011;21994;48.204;16.516;2022-08-01T00:10:20;4.70;;;2.22;;
35893;SDS011;21994;48.204;16.516;2022-08-01T00:12:45;3.17;;;1.85;;
35893;SDS011;21994;48.204;16.516;2022-08-01T00:15:14;4.78;;;1.70;;
35893;SDS011;21994;48.204;16.516;2022-08-01T00:17:41;3.88;;;2.13;;
35893;SDS011;21994;48.204;16.516;2022-08-01T00:20:09;2.65;;;1.67;;
35893;SDS011;21994;48.204;16.516;2022-08-01T00:22:37;2.30;;;1.77;;
35893;SDS011;21994;48.204;16.516;2022-08-01T00:25:03;3.47;;;2.03;;
35893;SDS011;21994;48.204;16.516;2022-08-01T00:27:31;3.92;;;1.90;;
35893;SDS011;21994;48.204;16.516;2022-08-01T00:29:57;3.85;;;1.77;;
35893;SDS011;21994;48.204;16.516;2022-08-01T00:32:23;2.38;;;1.90;;
35893;SDS011;21994;48.204;16.516;2022-08-01T00:34:49;2.60;;;1.92;;
35893;SDS011;21994;48.204;16.516;2022-08-01T00:37:15;2.88;;;1.83;;
35893;SDS011;21994;48.204;16.516;2022-08-01T00:39:41;2.35;;;1.70;;
35893;SDS011;21994;48.204;16.516;2022-08-01T00:42:11;2.10;;;1.85;;
35893;SDS011;21994;48.204;16.516;2022-08-01T00:44:38;2.42;;;1.58;;
35893;SDS011;21994;48.204;16.516;2022-08-01T00:47:04;3.47;;;2.03;;
35893;SDS011;21994;48.204;16.516;2022-08-01T00:49:31;6.32;;;2.65;;
35893;SDS011;21994;48.204;16.516;2022-08-01T00:51:57;2.63;;;1.80;;
35893;SDS011;21994;48.204;16.516;2022-08-01T00:54:25;2.38;;;1.73;;
35893;SDS011;21994;48.204;16.516;2022-08-01T00:56:52;3.42;;;1.95;;
35893;SDS011;21994;48.204;16.516;2022-08-01T00:59:19;2.72;;;1.45;;
35893;SDS011;21994;48.204;16.516;2022-08-01T01:01:47;3.55;;;1.85;;
35893;SDS011;21994;48.204;16.516;2022-08-01T01:04:13;3.30;;;1.98;;
35893;SDS011;21994;48.204;16.516;2022-08-01T01:12:36;3.30;;;2.03;;
35893;SDS011;21994;48.204;16.516;2022-08-01T01:15:33;3.70;;;2.40;;
35893;SDS011;21994;48.204;16.516;2022-08-01T01:18:25;3.40;;;2.05;;
35893;SDS011;21994;48.204;16.516;2022-08-01T01:29:17;3.45;;;1.85;;
35893;SDS011;21994;48.204;16.516;2022-08-01T01:34:43;4.22;;;1.92;;
35893;SDS011;21994;48.204;16.516;2022-08-01T01:37:14;4.40;;;1.48;;
35893;SDS011;21994;48.204;16.516;2022-08-01T01:39:44;2.65;;;1.70;;
35893;SDS011;21994;48.204;16.516;2022-08-01T01:42:13;2.85;;;1.70;;
35893;SDS011;21994;48.204;16.516;2022-08-01T01:44:40;4.88;;;1.80;;
35893;SDS011;21994;48.204;16.516;2022-08-01T01:47:08;3.50;;;1.83;;
35893;SDS011;21994;48.204;16.516;2022-08-01T01:49:37;2.03;;;1.60;;
35893;SDS011;21994;48.204;16.516;2022-08-01T01:52:06;3.08;;;1.98;;
35893;SDS011;21994;48.204;16.516;2022-08-01T01:54:35;3.38;;;1.98;;
35893;SDS011;21994;48.204;16.516;2022-08-01T01:57:05;2.00;;;1.52;;
35893;SDS011;21994;48.204;16.516;2022-08-01T01:59:34;3.85;;;1.98;;
35893;SDS011;21994;48.204;16.516;2022-08-01T02:02:04;3.25;;;2.20;;
35893;SDS011;21994;48.204;16.516;2022-08-01T02:04:32;3.20;;;2.10;;
35893;SDS011;21994;48.204;16.516;2022-08-01T02:07:01;3.30;;;2.08;;
35893;SDS011;21994;48.204;16.516;2022-08-01T02:09:28;2.97;;;1.58;;
35893;SDS011;21994;48.204;16.516;2022-08-01T02:11:56;2.38;;;1.70;;
35893;SDS011;21994;48.204;16.516;2022-08-01T02:14:23;2.70;;;1.85;;
35893;SDS011;21994;48.204;16.516;2022-08-01T02:16:52;4.57;;;1.95;;
35893;SDS011;21994;48.204;16.516;2022-08-01T02:19:22;2.90;;;1.90;;
35893;SDS011;21994;48.204;16.516;2022-08-01T02:24:24;3.08;;;1.95;;
35893;SDS011;21994;48.204;16.516;2022-08-01T02:27:00;3.25;;;1.90;;
35893;SDS011;21994;48.204;16.516;2022-08-01T02:30:05;3.90;;;2.10;;
35893;SDS011;21994;48.204;16.516;2022-08-01T02:32:41;3.53;;;1.60;;
35893;SDS011;21994;48.204;16.516;2022-08-01T02:35:32;2.58;;;1.90;;
35893;SDS011;21994;48.204;16.516;2022-08-01T02:38:03;3.47;;;1.88;;
35893;SDS011;21994;48.204;16.516;2022-08-01T02:40:35;3.88;;;2.00;;
35893;SDS011;21994;48.204;16.516;2022-08-01T02:43:06;4.45;;;2.38;;
35893;SDS011;21994;48.204;16.516;2022-08-01T02:45:37;2.85;;;2.10;;
35893;SDS011;21994;48.204;16.516;2022-08-01T02:48:09;3.55;;;2.05;;
35893;SDS011;21994;48.204;16.516;2022-08-01T02:50:38;5.38;;;3.45;;
35893;SDS011;21994;48.204;16.516;2022-08-01T02:53:07;3.88;;;2.30;;
35893;SDS011;21994;48.204;16.516;2022-08-01T02:55:36;4.50;;;2.03;;
35893;SDS011;21994;48.204;16.516;2022-08-01T02:58:05;4.35;;;2.30;;
35893;SDS011;21994;48.204;16.516;2022-08-01T03:00:33;2.83;;;2.28;;
35893;SDS011;21994;48.204;16.516;2022-08-01T03:03:00;3.70;;;1.98;;
35893;SDS011;21994;48.204;16.516;2022-08-01T03:05:28;3.20;;;1.70;;
35893;SDS011;21994;48.204;16.516;2022-08-01T03:07:57;3.90;;;2.30;;
35893;SDS011;21994;48.204;16.516;2022-08-01T03:10:26;3.90;;;2.13;;
35893;SDS011;21994;48.204;16.516;2022-08-01T03:12:54;2.75;;;1.95;;
35893;SDS011;21994;48.204;16.516;2022-08-01T03:15:21;3.20;;;2.20;;
35893;SDS011;21994;48.204;16.516;2022-08-01T03:17:50;4.43;;;2.78;;
35893;SDS011;21994;48.204;16.516;2022-08-01T03:20:18;3.28;;;2.22;;
35893;SDS011;21994;48.204;16.516;2022-08-01T03:22:49;3.00;;;1.95;;
35893;SDS011;21994;48.204;16.516;2022-08-01T03:25:18;6.53;;;2.80;;
35893;SDS011;21994;48.204;16.516;2022-08-01T03:27:45;2.17;;;1.88;;
35893;SDS011;21994;48.204;16.516;2022-08-01T03:30:23;5.43;;;2.35;;
35893;SDS011;21994;48.204;16.516;2022-08-01T03:32:51;3.78;;;1.98;;
35893;SDS011;21994;48.204;16.516;2022-08-01T03:35:18;5.88;;;2.80;;
35893;SDS011;21994;48.204;16.516;2022-08-01T03:37:47;3.97;;;2.22;;
35893;SDS011;21994;48.204;16.516;2022-08-01T03:40:35;4.82;;;2.13;;
35893;SDS011;21994;48.204;16.516;2022-08-01T03:43:06;3.78;;;2.00;;
35893;SDS011;21994;48.204;16.516;2022-08-01T03:45:38;5.43;;;2.30;;
35893;SDS011;21994;48.204;16.516;2022-08-01T03:48:09;3.80;;;2.22;;
35893;SDS011;21994;48.204;16.516;2022-08-01T03:50:39;6.88;;;2.35;;
35893;SDS011;21994;48.204;16.516;2022-08-01T03:53:08;3.30;;;1.77;;
35893;SDS011;21994;48.204;16.516;2022-08-01T03:55:37;4.53;;;2.50;;
35893;SDS011;21994;48.204;16.516;2022-08-01T03:58:04;4.18;;;2.40;;
35893;SDS011;21994;48.204;16.516;2022-08-01T04:00:31;4.70;;;2.70;;
35893;SDS011;21994;48.204;16.516;2022-08-01T04:02:58;4.32;;;2.28;;
35893;SDS011;21994;48.204;16.516;2022-08-01T04:05:24;3.80;;;2.45;;
35893;SDS011;21994;48.204;16.516;2022-08-01T04:07:50;3.70;;;2.47;;
35893;SDS011;21994;48.204;16.516;2022-08-01T04:10:24;3.20;;;1.80;;
35893;SDS011;21994;48.204;16.516;2022-08-01T04:12:50;4.85;;;2.55;;
35893;SDS011;21994;48.204;16.516;2022-08-01T04:15:17;4.30;;;2.30;;
35893;SDS011;21994;48.204;16.516;2022-08-01T04:17:43;2.60;;;2.08;;
35893;SDS011;21994;48.204;16.516;2022-08-01T04:20:09;3.95;;;2.42;;
35893;SDS011;21994;48.204;16.516;2022-08-01T04:22:36;3.67;;;2.08;;
35893;SDS011;21994;48.204;16.516;2022-08-01T04:25:03;4.80;;;2.53;;
35893;SDS011;21994;48.204;16.516;2022-08-01T04:27:45;3.13;;;2.22;;
35893;SDS011;21994;48.204;16.516;2022-08-01T04:30:15;3.20;;;1.93;;
35893;SDS011;21994;48.204;16.516;2022-08-01T04:32:51;6.30;;;3.17;;
35893;SDS011;21994;48.204;16.516;2022-08-01T04:35:20;3.97;;;2.45;;
35893;SDS011;21994;48.204;16.516;2022-08-01T04:37:47;5.65;;;2.90;;
35893;SDS011;21994;48.204;16.516;2022-08-01T04:40:16;4.75;;;2.65;;
35893;SDS011;21994;48.204;16.516;2022-08-01T04:42:42;3.60;;;1.98;;
35893;SDS011;21994;48.204;16.516;2022-08-01T04:45:08;4.10;;;2.67;;
35893;SDS011;21994;48.204;16.516;2022-08-01T04:47:36;5.22;;;2.70;;
35893;SDS011;21994;48.204;16.516;2022-08-01T04:50:06;2.30;;;1.92;;
35893;SDS011;21994;48.204;16.516;2022-08-01T04:52:34;4.05;;;2.42;;
35893;SDS011;21994;48.204;16.516;2022-08-01T04:55:02;4.65;;;2.20;;
35893;SDS011;21994;48.204;16.516;2022-08-01T04:57:32;2.80;;;1.85;;
35893;SDS011;21994;48.204;16.516;2022-08-01T05:00:02;4.35;;;2.10;;
35893;SDS011;21994;48.204;16.516;2022-08-01T05:02:29;3.95;;;2.13;;
35893;SDS011;21994;48.204;16.516;2022-08-01T05:04:55;3.60;;;1.80;;
35893;SDS011;21994;48.204;16.516;2022-08-01T05:07:22;3.35;;;2.20;;
35893;SDS011;21994;48.204;16.516;2022-08-01T05:09:48;2.80;;;1.83;;
35893;SDS011;21994;48.204;16.516;2022-08-01T05:12:13;2.25;;;2.00;;
35893;SDS011;21994;48.204;16.516;2022-08-01T05:14:40;3.67;;;2.25;;
35893;SDS011;21994;48.204;16.516;2022-08-01T05:17:08;4.18;;;2.45;;
35893;SDS011;21994;48.204;16.516;2022-08-01T05:19:36;2.95;;;1.63;;
35893;SDS011;21994;48.204;16.516;2022-08-01T05:22:04;3.17;;;1.98;;
35893;SDS011;21994;48.204;16.516;2022-08-01T05:24:33;3.90;;;2.47;;
35893;SDS011;21994;48.204;16.516;2022-08-01T05:27:01;3.30;;;2.20;;
35893;SDS011;21994;48.204;16.516;2022-08-01T05:29:27;5.18;;;2.67;;
35893;SDS011;21994;48.204;16.516;2022-08-01T05:31:54;3.33;;;3.03;;
35893;SDS011;21994;48.204;16.516;2022-08-01T05:34:21;4.05;;;2.10;;
35893;SDS011;21994;48.204;16.516;2022-08-01T05:36:47;2.00;;;1.80;;
35893;SDS011;21994;48.204;16.516;2022-08-01T05:39:13;2.38;;;2.17;;
35893;SDS011;21994;48.204;16.516;2022-08-01T05:41:40;3.08;;;2.25;;
35893;SDS011;21994;48.204;16.516;2022-08-01T05:44:07;2.97;;;2.35;;
35893;SDS011;21994;48.204;16.516;2022-08-01T05:46:33;4.45;;;2.67;;
35893;SDS011;21994;48.204;16.516;2022-08-01T05:49:00;3.50;;;2.00;;
35893;SDS011;21994;48.204;16.516;2022-08-01T05:51:28;3.13;;;2.35;;
35893;SDS011;21994;48.204;16.516;2022-08-01T05:53:55;2.22;;;1.90;;
35893;SDS011;21994;48.204;16.516;2022-08-01T05:56:21;3.60;;;2.20;;
35893;SDS011;21994;48.204;16.516;2022-08-01T05:58:48;4.20;;;2.47;;
35893;SDS011;21994;48.204;16.516;2022-08-01T06:01:16;3.67;;;2.72;;
35893;SDS011;21994;48.204;16.516;2022-08-01T06:03:43;3.67;;;2.20;;
35893;SDS011;21994;48.204;16.516;2022-08-01T06:06:09;3.50;;;2.53;;
35893;SDS011;21994;48.204;16.516;2022-08-01T06:08:35;3.72;;;2.13;;
35893;SDS011;21994;48.204;16.516;2022-08-01T06:11:01;2.95;;;2.13;;
35893;SDS011;21994;48.204;16.516;2022-08-01T06:13:27;4.18;;;2.28;;
35893;SDS011;21994;48.204;16.516;2022-08-01T06:15:53;4.43;;;2.30;;
35893;SDS011;21994;48.204;16.516;2022-08-01T06:18:19;5.57;;;2.80;;
35893;SDS011;21994;48.204;16.516;2022-08-01T06:20:45;2.97;;;1.85;;
35893;SDS011;21994;48.204;16.516;2022-08-01T06:23:12;4.57;;;2.15;;
35893;SDS011;21994;48.204;16.516;2022-08-01T06:25:40;3.38;;;2.05;;
35893;SDS011;21994;48.204;16.516;2022-08-01T06:28:07;4.13;;;2.40;;
35893;SDS011;21994;48.204;16.516;2022-08-01T06:30:34;4.25;;;2.20;;
35893;SDS011;21994;48.204;16.516;2022-08-01T06:32:59;1.90;;;1.70;;
35893;SDS011;21994;48.204;16.516;2022-08-01T06:35:26;3.17;;;2.58;;
35893;SDS011;21994;48.204;16.516;2022-08-01T06:37:57;4.70;;;2.42;;
35893;SDS011;21994;48.204;16.516;2022-08-01T06:40:23;2.80;;;1.63;;
35893;SDS011;21994;48.204;16.516;2022-08-01T06:42:49;1.92;;;1.80;;
35893;SDS011;21994;48.204;16.516;2022-08-01T06:45:15;2.38;;;1.63;;
35893;SDS011;21994;48.204;16.516;2022-08-01T06:47:42;5.75;;;2.42;;
35893;SDS011;21994;48.204;16.516;2022-08-01T06:50:10;3.10;;;1.98;;
35893;SDS011;21994;48.204;16.516;2022-08-01T06:52:37;3.65;;;1.80;;
35893;SDS011;21994;48.204;16.516;2022-08-01T06:55:03;4.20;;;2.45;;
35893;SDS011;21994;48.204;16.516;2022-08-01T06:57:30;3.58;;;2.42;;
35893;SDS011;21994;48.204;16.516;2022-08-01T07:00:51;1.58;;;1.27;;
35893;SDS011;21994;48.204;16.516;2022-08-01T07:03:17;3.42;;;1.70;;
35893;SDS011;21994;48.204;16.516;2022-08-01T07:05:43;2.25;;;1.88;;
35893;SDS011;21994;48.204;16.516;2022-08-01T07:08:09;2.60;;;1.60;;
35893;SDS011;21994;48.204;16.516;2022-08-01T07:10:35;2.42;;;1.73;;
35893;SDS011;21994;48.204;16.516;2022-08-01T07:13:01;4.72;;;2.30;;
35893;SDS011;21994;48.204;16.516;2022-08-01T07:15:26;2.22;;;1.75;;
35893;SDS011;21994;48.204;16.516;2022-08-01T07:17:52;2.17;;;1.55;;
35893;SDS011;21994;48.204;16.516;2022-08-01T07:20:18;2.72;;;1.77;;
35893;SDS011;21994;48.204;16.516;2022-08-01T07:22:44;2.17;;;1.60;;
35893;SDS011;21994;48.204;16.516;2022-08-01T07:25:10;1.63;;;1.33;;
35893;SDS011;21994;48.204;16.516;2022-08-01T07:27:36;2.92;;;1.80;;
35893;SDS011;21994;48.204;16.516;2022-08-01T07:30:03;2.00;;;1.65;;
35893;SDS011;21994;48.204;16.516;2022-08-01T07:32:30;2.53;;;1.80;;
35893;SDS011;21994;48.204;16.516;2022-08-01T07:34:56;1.80;;;1.38;;
35893;SDS011;21994;48.204;16.516;2022-08-01T07:37:22;1.70;;;1.48;;
35893;SDS011;21994;48.204;16.516;2022-08-01T07:39:49;1.55;;;1.30;;
35893;SDS011;21994;48.204;16.516;2022-08-01T07:42:15;1.75;;;1.35;;
35893;SDS011;21994;48.204;16.516;2022-08-01T07:44:41;2.90;;;1.48;;
35893;SDS011;21994;48.204;16.516;2022-08-01T07:47:06;1.70;;;1.45;;
35893;SDS011;21994;48.204;16.516;2022-08-01T07:49:33;1.60;;;1.50;;
35893;SDS011;21994;48.204;16.516;2022-08-01T07:51:59;2.55;;;1.80;;
35893;SDS011;21994;48.204;16.516;2022-08-01T07:54:25;2.40;;;1.58;;
35893;SDS011;21994;48.204;16.516;2022-08-01T07:56:53;2.67;;;1.88;;
35893;SDS011;21994;48.204;16.516;2022-08-01T07:59:19;2.67;;;1.58;;
35893;SDS011;21994;48.204;16.516;2022-08-01T08:01:48;2.20;;;1.38;;
35893;SDS011;21994;48.204;16.516;2022-08-01T08:04:16;1.77;;;1.40;;
35893;SDS011;21994;48.204;16.516;2022-08-01T08:06:43;2.05;;;1.58;;
35893;SDS011;21994;48.204;16.516;2022-08-01T08:09:09;2.22;;;1.70;;
35893;SDS011;21994;48.204;16.516;2022-08-01T08:11:36;1.52;;;1.02;;
35893;SDS011;21994;48.204;16.516;2022-08-01T08:14:02;2.15;;;1.45;;
35893;SDS011;21994;48.204;16.516;2022-08-01T08:16:27;2.17;;;1.67;;
35893;SDS011;21994;48.204;16.516;2022-08-01T08:18:53;2.38;;;1.70;;
35893;SDS011;21994;48.204;16.516;2022-08-01T08:21:19;2.05;;;1.52;;
35893;SDS011;21994;48.204;16.516;2022-08-01T08:23:45;2.95;;;1.48;;
35893;SDS011;21994;48.204;16.516;2022-08-01T08:26:29;3.25;;;1.67;;
35893;SDS011;21994;48.204;16.516;2022-08-01T08:28:55;2.17;;;1.35;;
35893;SDS011;21994;48.204;16.516;2022-08-01T08:31:21;2.15;;;1.50;;
35893;SDS011;21994;48.204;16.516;2022-08-01T08:33:47;2.15;;;1.58;;
35893;SDS011;21994;48.204;16.516;2022-08-01T08:36:13;2.30;;;1.58;;
35893;SDS011;21994;48.204;16.516;2022-08-01T08:38:40;2.35;;;1.70;;
35893;SDS011;21994;48.204;16.516;2022-08-01T08:41:05;2.95;;;1.65;;
35893;SDS011;21994;48.204;16.516;2022-08-01T08:43:32;1.75;;;1.55;;
35893;SDS011;21994;48.204;16.516;2022-08-01T08:45:58;3.10;;;1.70;;
35893;SDS011;21994;48.204;16.516;2022-08-01T08:48:26;2.15;;;1.25;;
35893;SDS011;21994;48.204;16.516;2022-08-01T08:50:52;2.05;;;1.30;;
35893;SDS011;21994;48.204;16.516;2022-08-01T08:53:18;1.67;;;1.30;;
35893;SDS011;21994;48.204;16.516;2022-08-01T08:55:45;3.55;;;1.35;;
35893;SDS011;21994;48.204;16.516;2022-08-01T08:58:12;2.58;;;2.05;;
35893;SDS011;21994;48.204;16.516;2022-08-01T09:00:39;2.15;;;1.45;;
35893;SDS011;21994;48.204;16.516;2022-08-01T09:03:05;1.50;;;1.10;;
35893;SDS011;21994;48.204;16.516;2022-08-01T09:05:31;1.63;;;1.25;;
35893;SDS011;21994;48.204;16.516;2022-08-01T09:07:57;1.92;;;1.25;;
35893;SDS011;21994;48.204;16.516;2022-08-01T09:10:23;2.15;;;1.60;;
35893;SDS011;21994;48.204;16.516;2022-08-01T09:13:08;1.60;;;0.95;;
35893;SDS011;21994;48.204;16.516;2022-08-01T09:15:38;1.50;;;1.05;;
35893;SDS011;21994;48.204;16.516;2022-08-01T09:23:31;1.52;;;1.42;;
35893;SDS011;21994;48.204;16.516;2022-08-01T09:26:20;2.50;;;1.52;;
35893;SDS011;21994;48.204;16.516;2022-08-01T09:28:54;3.10;;;1.30;;
35893;SDS011;21994;48.204;16.516;2022-08-01T09:31:20;1.35;;;1.20;;
35893;SDS011;21994;48.204;16.516;2022-08-01T09:33:47;1.30;;;1.20;;
35893;SDS011;21994;48.204;16.516;2022-08-01T09:36:20;2.05;;;1.48;;
35893;SDS011;21994;48.204;16.516;2022-08-01T09:38:49;2.40;;;1.67;;
35893;SDS011;21994;48.204;16.516;2022-08-01T09:41:17;1.95;;;1.60;;
35893;SDS011;21994;48.204;16.516;2022-08-01T09:43:56;1.85;;;1.63;;
35893;SDS011;21994;48.204;16.516;2022-08-01T09:46:22;1.75;;;1.33;;
35893;SDS011;21994;48.204;16.516;2022-08-01T09:48:59;1.33;;;1.10;;
35893;SDS011;21994;48.204;16.516;2022-08-01T09:51:32;1.75;;;1.48;;
35893;SDS011;21994;48.204;16.516;2022-08-01T09:54:03;1.65;;;1.40;;
35893;SDS011;21994;48.204;16.516;2022-08-01T09:56:41;1.50;;;1.40;;
35893;SDS011;21994;48.204;16.516;2022-08-01T09:59:08;1.35;;;1.05;;
35893;SDS011;21994;48.204;16.516;2022-08-01T10:01:41;2.35;;;1.40;;
35893;SDS011;21994;48.204;16.516;2022-08-01T10:04:18;1.88;;;1.25;;
35893;SDS011;21994;48.204;16.516;2022-08-01T10:06:49;1.98;;;1.75;;
35893;SDS011;21994;48.204;16.516;2022-08-01T10:09:29;1.60;;;1.23;;
35893;SDS011;21994;48.204;16.516;2022-08-01T10:11:57;1.42;;;1.15;;
35893;SDS011;21994;48.204;16.516;2022-08-01T10:14:25;1.90;;;1.52;;
35893;SDS011;21994;48.204;16.516;2022-08-01T10:16:52;1.88;;;1.60;;
35893;SDS011;21994;48.204;16.516;2022-08-01T10:19:22;1.67;;;1.52;;
35893;SDS011;21994;48.204;16.516;2022-08-01T10:21:51;1.63;;;1.40;;
35893;SDS011;21994;48.204;16.516;2022-08-01T10:24:21;1.70;;;1.42;;
35893;SDS011;21994;48.204;16.516;2022-08-01T10:26:49;1.75;;;1.33;;
35893;SDS011;21994;48.204;16.516;2022-08-01T10:29:20;1.88;;;1.58;;
35893;SDS011;21994;48.204;16.516;2022-08-01T10:31:46;1.85;;;1.38;;
35893;SDS011;21994;48.204;16.516;2022-08-01T10:34:16;1.10;;;1.00;;
35893;SDS011;21994;48.204;16.516;2022-08-01T10:36:47;1.38;;;1.25;;
35893;SDS011;21994;48.204;16.516;2022-08-01T10:39:13;1.33;;;1.23;;
35893;SDS011;21994;48.204;16.516;2022-08-01T10:41:39;2.95;;;1.60;;
35893;SDS011;21994;48.204;16.516;2022-08-01T10:44:06;1.40;;;1.30;;
35893;SDS011;21994;48.204;16.516;2022-08-01T10:46:37;1.83;;;1.42;;
35893;SDS011;21994;48.204;16.516;2022-08-01T10:49:07;1.23;;;1.13;;
35893;SDS011;21994;48.204;16.516;2022-08-01T10:51:37;1.60;;;1.33;;
35893;SDS011;21994;48.204;16.516;2022-08-01T10:54:07;1.60;;;1.38;;
35893;SDS011;21994;48.204;16.516;2022-08-01T10:56:39;1.92;;;1.40;;
35893;SDS011;21994;48.204;16.516;2022-08-01T10:59:28;1.63;;;1.48;;
35893;SDS011;21994;48.204;16.516;2022-08-01T11:02:01;1.70;;;1.48;;
35893;SDS011;21994;48.204;16.516;2022-08-01T11:07:11;1.15;;;1.05;;
35893;SDS011;21994;48.204;16.516;2022-08-01T11:09:47;1.55;;;1.45;;
35893;SDS011;21994;48.204;16.516;2022-08-01T11:12:39;1.60;;;1.50;;
35893;SDS011;21994;48.204;16.516;2022-08-01T11:17:41;2.03;;;1.40;;
35893;SDS011;21994;48.204;16.516;2022-08-01T11:25:25;2.25;;;1.75;;
35893;SDS011;21994;48.204;16.516;2022-08-01T11:30:45;2.30;;;1.70;;
35893;SDS011;21994;48.204;16.516;2022-08-01T11:33:17;2.35;;;1.52;;
35893;SDS011;21994;48.204;16.516;2022-08-01T11:38:37;1.65;;;1.25;;
35893;SDS011;21994;48.204;16.516;2022-08-01T11:41:28;1.95;;;1.40;;
35893;SDS011;21994;48.204;16.516;2022-08-01T11:52:19;1.48;;;1.38;;
35893;SDS011;21994;48.204;16.516;2022-08-01T11:57:32;1.67;;;1.58;;
35893;SDS011;21994;48.204;16.516;2022-08-01T12:02:43;1.90;;;1.30;;
35893;SDS011;21994;48.204;16.516;2022-08-01T12:05:15;1.25;;;1.15;;
35893;SDS011;21994;48.204;16.516;2022-08-01T12:07:47;2.85;;;1.10;;
35893;SDS011;21994;48.204;16.516;2022-08-01T12:10:16;1.88;;;1.40;;
35893;SDS011;21994;48.204;16.516;2022-08-01T12:12:46;1.08;;;0.98;;
35893;SDS011;21994;48.204;16.516;2022-08-01T12:15:14;2.33;;;1.33;;
35893;SDS011;21994;48.204;16.516;2022-08-01T12:17:42;3.72;;;1.77;;
35893;SDS011;21994;48.204;16.516;2022-08-01T12:20:21;1.80;;;1.50;;
35893;SDS011;21994;48.204;16.516;2022-08-01T12:22:55;1.70;;;1.50;;
35893;SDS011;21994;48.204;16.516;2022-08-01T12:25:34;1.88;;;1.30;;
35893;SDS011;21994;48.204;16.516;2022-08-01T12:28:02;1.90;;;1.50;;
35893;SDS011;21994;48.204;16.516;2022-08-01T12:30:31;2.60;;;1.73;;
35893;SDS011;21994;48.204;16.516;2022-08-01T12:33:01;2.00;;;1.52;;
35893;SDS011;21994;48.204;16.516;2022-08-01T12:35:30;2.22;;;1.55;;
35893;SDS011;21994;48.204;16.516;2022-08-01T12:37:57;1.55;;;1.45;;
35893;SDS011;21994;48.204;16.516;2022-08-01T12:40:52;1.88;;;1.52;;
35893;SDS011;21994;48.204;16.516;2022-08-01T12:43:18;1.65;;;1.42;;
35893;SDS011;21994;48.204;16.516;2022-08-01T12:45:48;2.10;;;1.48;;
35893;SDS011;21994;48.204;16.516;2022-08-01T12:48:15;2.55;;;1.70;;
35893;SDS011;21994;48.204;16.516;2022-08-01T12:50:43;2.38;;;1.48;;
35893;SDS011;21994;48.204;16.516;2022-08-01T12:53:11;2.03;;;1.40;;
35893;SDS011;21994;48.204;16.516;2022-08-01T12:55:44;1.65;;;1.20;;
35893;SDS011;21994;48.204;16.516;2022-08-01T12:58:15;1.13;;;0.80;;
35893;SDS011;21994;48.204;16.516;2022-08-01T13:00:43;1.45;;;1.00;;
35893;SDS011;21994;48.204;16.516;2022-08-01T13:03:13;1.17;;;0.65;;
35893;SDS011;21994;48.204;16.516;2022-08-01T13:08:15;0.60;;;0.40;;
35893;SDS011;21994;48.204;16.516;2022-08-01T13:10:47;1.13;;;0.60;;
35893;SDS011;21994;48.204;16.516;2022-08-01T13:13:15;0.70;;;0.52;;
35893;SDS011;21994;48.204;16.516;2022-08-01T13:15:44;0.95;;;0.68;;
35893;SDS011;21994;48.204;16.516;2022-08-01T13:21:17;1.63;;;0.85;;
35893;SDS011;21994;48.204;16.516;2022-08-01T13:34:38;1.10;;;1.00;;
35893;SDS011;21994;48.204;16.516;2022-08-01T13:37:04;1.48;;;1.38;;
35893;SDS011;21994;48.204;16.516;2022-08-01T13:39:30;1.65;;;1.30;;
35893;SDS011;21994;48.204;16.516;2022-08-01T13:42:10;1.95;;;1.20;;
35893;SDS011;21994;48.204;16.516;2022-08-01T13:44:39;1.23;;;1.02;;
35893;SDS011;21994;48.204;16.516;2022-08-01T13:47:07;1.48;;;1.17;;
35893;SDS011;21994;48.204;16.516;2022-08-01T13:49:34;2.03;;;1.40;;
35893;SDS011;21994;48.204;16.516;2022-08-01T13:52:00;1.48;;;1.38;;
35893;SDS011;21994;48.204;16.516;2022-08-01T13:54:27;1.00;;;0.90;;
35893;SDS011;21994;48.204;16.516;2022-08-01T13:56:53;1.65;;;1.08;;
35893;SDS011;21994;48.204;16.516;2022-08-01T13:59:19;1.20;;;1.08;;
35893;SDS011;21994;48.204;16.516;2022-08-01T14:01:45;1.60;;;1.20;;
35893;SDS011;21994;48.204;16.516;2022-08-01T14:04:11;1.40;;;0.90;;
35893;SDS011;21994;48.204;16.516;2022-08-01T14:06:38;1.80;;;0.90;;
35893;SDS011;21994;48.204;16.516;2022-08-01T14:09:04;1.92;;;1.00;;
35893;SDS011;21994;48.204;16.516;2022-08-01T14:11:30;1.63;;;0.98;;
35893;SDS011;21994;48.204;16.516;2022-08-01T14:13:57;0.73;;;0.63;;
35893;SDS011;21994;48.204;16.516;2022-08-01T14:16:22;1.77;;;0.80;;
35893;SDS011;21994;48.204;16.516;2022-08-01T14:18:49;1.65;;;0.80;;
35893;SDS011;21994;48.204;16.516;2022-08-01T14:21:15;1.45;;;0.82;;
35893;SDS011;21994;48.204;16.516;2022-08-01T14:23:42;1.55;;;0.95;;
35893;SDS011;21994;48.204;16.516;2022-08-01T14:26:08;1.02;;;0.90;;
35893;SDS011;21994;48.204;16.516;2022-08-01T14:28:35;1.48;;;0.73;;
35893;SDS011;21994;48.204;16.516;2022-08-01T14:31:01;0.82;;;0.70;;
35893;SDS011;21994;48.204;16.516;2022-08-01T14:33:28;1.30;;;0.80;;
35893;SDS011;21994;48.204;16.516;2022-08-01T14:35:54;0.98;;;0.75;;
35893;SDS011;21994;48.204;16.516;2022-08-01T14:38:20;0.70;;;0.60;;
35893;SDS011;21994;48.204;16.516;2022-08-01T14:40:46;2.13;;;0.80;;
35893;SDS011;21994;48.204;16.516;2022-08-01T14:43:16;1.95;;;1.10;;
35893;SDS011;21994;48.204;16.516;2022-08-01T14:45:43;1.00;;;0.90;;
35893;SDS011;21994;48.204;16.516;2022-08-01T14:48:09;1.02;;;0.80;;
35893;SDS011;21994;48.204;16.516;2022-08-01T14:50:35;1.52;;;0.90;;
35893;SDS011;21994;48.204;16.516;2022-08-01T14:53:01;0.80;;;0.75;;
35893;SDS011;21994;48.204;16.516;2022-08-01T14:55:28;1.33;;;0.80;;
35893;SDS011;21994;48.204;16.516;2022-08-01T14:57:53;0.68;;;0.68;;
35893;SDS011;21994;48.204;16.516;2022-08-01T15:00:19;2.45;;;0.80;;
35893;SDS011;21994;48.204;16.516;2022-08-01T15:02:46;2.00;;;1.10;;
35893;SDS011;21994;48.204;16.516;2022-08-01T15:05:12;0.93;;;0.70;;
35893;SDS011;21994;48.204;16.516;2022-08-01T15:07:38;1.70;;;0.88;;
35893;SDS011;21994;48.204;16.516;2022-08-01T15:10:04;1.30;;;0.75;;
35893;SDS011;21994;48.204;16.516;2022-08-01T15:12:32;0.75;;;0.60;;
35893;SDS011;21994;48.204;16.516;2022-08-01T15:14:59;1.17;;;0.90;;
35893;SDS011;21994;48.204;16.516;2022-08-01T15:17:25;2.00;;;0.82;;
35893;SDS011;21994;48.204;16.516;2022-08-01T15:19:55;1.05;;;0.70;;
35893;SDS011;21994;48.204;16.516;2022-08-01T15:22:23;0.65;;;0.65;;
35893;SDS011;21994;48.204;16.516;2022-08-01T15:24:53;1.15;;;0.70;;
35893;SDS011;21994;48.204;16.516;2022-08-01T15:27:20;1.58;;;1.00;;
35893;SDS011;21994;48.204;16.516;2022-08-01T15:29:47;1.58;;;1.02;;
35893;SDS011;21994;48.204;16.516;2022-08-01T15:32:13;1.35;;;0.73;;
35893;SDS011;21994;48.204;16.516;2022-08-01T15:34:39;1.17;;;0.77;;
35893;SDS011;21994;48.204;16.516;2022-08-01T15:37:06;0.80;;;0.80;;
35893;SDS011;21994;48.204;16.516;2022-08-01T15:39:32;1.00;;;0.60;;
35893;SDS011;21994;48.204;16.516;2022-08-01T15:42:00;1.10;;;1.00;;
35893;SDS011;21994;48.204;16.516;2022-08-01T15:44:30;0.77;;;0.70;;
35893;SDS011;21994;48.204;16.516;2022-08-01T15:46:56;1.15;;;0.82;;
35893;SDS011;21994;48.204;16.516;2022-08-01T15:49:21;1.60;;;1.20;;
35893;SDS011;21994;48.204;16.516;2022-08-01T15:51:49;1.15;;;0.70;;
35893;SDS011;21994;48.204;16.516;2022-08-01T15:54:15;2.35;;;0.75;;